sensor_id;sensor_type;location;lat;lon;timestamp;P1;durP1;ratioP1;P2;durP2;ratioP2
13720;SDS011;6932;51.438;5.470;2022-07-29T00:00:43;3.40;;;1.40;;
13720;SDS011;6932;51.438;5.470;2022-07-29T00:03:13;3.43;;;1.50;;
13720;SDS011;6932;51.438;5.470;2022-07-29T00:05:39;2.07;;;1.37;;
13720;SDS011;6932;51.438;5.470;2022-07-29T00:08:07;2.83;;;1.30;;
13720;SDS011;6932;51.438;5.470;2022-07-29T00:10:34;1.87;;;1.20;;
13720;SDS011;6932;51.438;5.470;2022-07-29T00:13:00;1.97;;;1.30;;
13720;SDS011;6932;51.438;5.470;2022-07-29T00:15:27;1.60;;;1.20;;
13720;SDS011;6932;51.438;5.470;2022-07-29T00:17:53;1.63;;;1.30;;
13720;SDS011;6932;51.438;5.470;2022-07-29T00:20:19;2.37;;;1.30;;
13720;SDS011;6932;51.438;5.470;2022-07-29T00:22:45;2.53;;;1.40;;
13720;SDS011;6932;51.438;5.470;2022-07-29T00:25:11;3.20;;;1.30;;
13720;SDS011;6932;51.438;5.470;2022-07-29T00:27:37;2.53;;;1.33;;
13720;SDS011;6932;51.438;5.470;2022-07-29T00:30:04;3.37;;;1.33;;
13720;SDS011;6932;51.438;5.470;2022-07-29T00:32:31;2.30;;;1.30;;
13720;SDS011;6932;51.438;5.470;2022-07-29T00:34:57;2.00;;;1.37;;
13720;SDS011;6932;51.438;5.470;2022-07-29T00:37:42;1.87;;;1.23;;
13720;SDS011;6932;51.438;5.470;2022-07-29T00:40:07;2.03;;;1.20;;
13720;SDS011;6932;51.438;5.470;2022-07-29T00:42:43;3.53;;;1.73;;
13720;SDS011;6932;51.438;5.470;2022-07-29T00:45:11;6.53;;;3.60;;
13720;SDS011;6932;51.438;5.470;2022-07-29T00:47:38;6.47;;;3.70;;
13720;SDS011;6932;51.438;5.470;2022-07-29T00:50:05;20.63;;;13.23;;
13720;SDS011;6932;51.438;5.470;2022-07-29T00:52:33;20.20;;;12.10;;
13720;SDS011;6932;51.438;5.470;2022-07-29T00:55:03;17.97;;;11.50;;
13720;SDS011;6932;51.438;5.470;2022-07-29T00:57:31;16.53;;;11.00;;
13720;SDS011;6932;51.438;5.470;2022-07-29T00:59:58;14.43;;;9.37;;
13720;SDS011;6932;51.438;5.470;2022-07-29T01:02:23;11.90;;;7.47;;
13720;SDS011;6932;51.438;5.470;2022-07-29T01:04:49;9.47;;;5.53;;
13720;SDS011;6932;51.438;5.470;2022-07-29T01:07:16;7.53;;;4.10;;
13720;SDS011;6932;51.438;5.470;2022-07-29T01:09:43;9.63;;;5.00;;
13720;SDS011;6932;51.438;5.470;2022-07-29T01:12:10;9.03;;;4.33;;
13720;SDS011;6932;51.438;5.470;2022-07-29T01:14:40;7.93;;;3.07;;
13720;SDS011;6932;51.438;5.470;2022-07-29T01:17:10;9.03;;;3.93;;
13720;SDS011;6932;51.438;5.470;2022-07-29T01:19:47;7.73;;;3.50;;
13720;SDS011;6932;51.438;5.470;2022-07-29T01:22:37;5.70;;;3.20;;
13720;SDS011;6932;51.438;5.470;2022-07-29T01:28:49;4.57;;;2.07;;
13720;SDS011;6932;51.438;5.470;2022-07-29T01:31:39;4.27;;;2.33;;
13720;SDS011;6932;51.438;5.470;2022-07-29T01:34:25;4.47;;;2.30;;
13720;SDS011;6932;51.438;5.470;2022-07-29T01:37:08;4.33;;;2.50;;
13720;SDS011;6932;51.438;5.470;2022-07-29T01:39:46;3.43;;;2.10;;
13720;SDS011;6932;51.438;5.470;2022-07-29T01:42:17;4.83;;;2.23;;
13720;SDS011;6932;51.438;5.470;2022-07-29T01:45:02;4.80;;;2.23;;
13720;SDS011;6932;51.438;5.470;2022-07-29T01:47:44;4.13;;;1.90;;
13720;SDS011;6932;51.438;5.470;2022-07-29T01:50:36;3.63;;;2.03;;
13720;SDS011;6932;51.438;5.470;2022-07-29T01:53:12;4.00;;;2.10;;
13720;SDS011;6932;51.438;5.470;2022-07-29T01:55:50;2.97;;;2.00;;
13720;SDS011;6932;51.438;5.470;2022-07-29T01:58:19;4.30;;;1.90;;
13720;SDS011;6932;51.438;5.470;2022-07-29T02:00:48;4.30;;;1.90;;
13720;SDS011;6932;51.438;5.470;2022-07-29T02:03:16;4.70;;;1.90;;
13720;SDS011;6932;51.438;5.470;2022-07-29T02:05:43;3.97;;;2.00;;
13720;SDS011;6932;51.438;5.470;2022-07-29T02:08:12;3.80;;;1.97;;
13720;SDS011;6932;51.438;5.470;2022-07-29T02:10:41;3.70;;;2.00;;
13720;SDS011;6932;51.438;5.470;2022-07-29T02:13:09;3.67;;;1.90;;
13720;SDS011;6932;51.438;5.470;2022-07-29T02:15:36;4.73;;;1.93;;
13720;SDS011;6932;51.438;5.470;2022-07-29T02:18:05;3.03;;;1.90;;
13720;SDS011;6932;51.438;5.470;2022-07-29T02:20:41;2.87;;;1.87;;
13720;SDS011;6932;51.438;5.470;2022-07-29T02:23:14;4.43;;;2.00;;
13720;SDS011;6932;51.438;5.470;2022-07-29T02:25:44;3.20;;;2.13;;
13720;SDS011;6932;51.438;5.470;2022-07-29T02:28:17;3.17;;;2.17;;
13720;SDS011;6932;51.438;5.470;2022-07-29T02:30:46;2.97;;;1.90;;
13720;SDS011;6932;51.438;5.470;2022-07-29T02:33:16;2.90;;;1.90;;
13720;SDS011;6932;51.438;5.470;2022-07-29T02:35:45;5.67;;;2.73;;
13720;SDS011;6932;51.438;5.470;2022-07-29T02:38:13;4.23;;;2.10;;
13720;SDS011;6932;51.438;5.470;2022-07-29T02:41:04;2.60;;;1.87;;
13720;SDS011;6932;51.438;5.470;2022-07-29T02:43:36;2.90;;;1.90;;
13720;SDS011;6932;51.438;5.470;2022-07-29T02:46:04;3.93;;;2.27;;
13720;SDS011;6932;51.438;5.470;2022-07-29T02:48:36;3.10;;;2.00;;
13720;SDS011;6932;51.438;5.470;2022-07-29T02:51:53;2.50;;;1.80;;
13720;SDS011;6932;51.438;5.470;2022-07-29T02:54:07;2.60;;;1.90;;
13720;SDS011;6932;51.438;5.470;2022-07-29T02:56:40;3.50;;;2.10;;
13720;SDS011;6932;51.438;5.470;2022-07-29T02:59:10;3.77;;;1.97;;
13720;SDS011;6932;51.438;5.470;2022-07-29T03:01:41;4.27;;;2.07;;
13720;SDS011;6932;51.438;5.470;2022-07-29T03:04:09;4.17;;;2.30;;
13720;SDS011;6932;51.438;5.470;2022-07-29T03:06:37;4.53;;;2.23;;
13720;SDS011;6932;51.438;5.470;2022-07-29T03:09:06;2.80;;;2.00;;
13720;SDS011;6932;51.438;5.470;2022-07-29T03:11:33;2.13;;;1.93;;
13720;SDS011;6932;51.438;5.470;2022-07-29T03:14:01;3.63;;;2.13;;
13720;SDS011;6932;51.438;5.470;2022-07-29T03:16:29;5.07;;;2.20;;
13720;SDS011;6932;51.438;5.470;2022-07-29T03:18:55;3.10;;;2.00;;
13720;SDS011;6932;51.438;5.470;2022-07-29T03:21:21;4.23;;;2.40;;
13720;SDS011;6932;51.438;5.470;2022-07-29T03:23:47;2.67;;;2.00;;
13720;SDS011;6932;51.438;5.470;2022-07-29T03:26:12;3.87;;;1.93;;
13720;SDS011;6932;51.438;5.470;2022-07-29T03:28:38;4.47;;;2.30;;
13720;SDS011;6932;51.438;5.470;2022-07-29T03:31:04;4.20;;;2.00;;
13720;SDS011;6932;51.438;5.470;2022-07-29T03:33:30;3.20;;;2.20;;
13720;SDS011;6932;51.438;5.470;2022-07-29T03:35:56;3.67;;;2.30;;
13720;SDS011;6932;51.438;5.470;2022-07-29T03:38:24;4.80;;;2.20;;
13720;SDS011;6932;51.438;5.470;2022-07-29T03:40:55;3.53;;;2.30;;
13720;SDS011;6932;51.438;5.470;2022-07-29T03:43:26;5.47;;;2.33;;
13720;SDS011;6932;51.438;5.470;2022-07-29T03:46:01;3.30;;;2.20;;
13720;SDS011;6932;51.438;5.470;2022-07-29T03:48:30;4.20;;;2.50;;
13720;SDS011;6932;51.438;5.470;2022-07-29T03:51:00;2.57;;;2.17;;
13720;SDS011;6932;51.438;5.470;2022-07-29T03:53:26;3.60;;;2.00;;
13720;SDS011;6932;51.438;5.470;2022-07-29T03:55:53;3.60;;;2.10;;
13720;SDS011;6932;51.438;5.470;2022-07-29T03:58:25;3.50;;;2.30;;
13720;SDS011;6932;51.438;5.470;2022-07-29T04:00:53;3.73;;;2.10;;
13720;SDS011;6932;51.438;5.470;2022-07-29T04:03:20;3.83;;;2.20;;
13720;SDS011;6932;51.438;5.470;2022-07-29T04:06:00;5.87;;;2.50;;
13720;SDS011;6932;51.438;5.470;2022-07-29T04:08:31;4.00;;;2.33;;
13720;SDS011;6932;51.438;5.470;2022-07-29T04:10:58;3.90;;;2.27;;
13720;SDS011;6932;51.438;5.470;2022-07-29T04:13:25;4.00;;;2.33;;
13720;SDS011;6932;51.438;5.470;2022-07-29T04:15:51;4.03;;;2.20;;
13720;SDS011;6932;51.438;5.470;2022-07-29T04:18:17;4.57;;;2.60;;
13720;SDS011;6932;51.438;5.470;2022-07-29T04:20:42;3.93;;;2.47;;
13720;SDS011;6932;51.438;5.470;2022-07-29T04:23:08;3.93;;;2.37;;
13720;SDS011;6932;51.438;5.470;2022-07-29T04:25:36;3.53;;;2.30;;
13720;SDS011;6932;51.438;5.470;2022-07-29T04:28:04;2.80;;;2.20;;
13720;SDS011;6932;51.438;5.470;2022-07-29T04:30:32;3.80;;;2.50;;
13720;SDS011;6932;51.438;5.470;2022-07-29T04:33:04;4.87;;;2.70;;
13720;SDS011;6932;51.438;5.470;2022-07-29T04:35:35;3.27;;;2.30;;
13720;SDS011;6932;51.438;5.470;2022-07-29T04:38:02;3.37;;;2.37;;
13720;SDS011;6932;51.438;5.470;2022-07-29T04:40:29;4.40;;;2.40;;
13720;SDS011;6932;51.438;5.470;2022-07-29T04:42:57;6.03;;;2.70;;
13720;SDS011;6932;51.438;5.470;2022-07-29T04:45:25;4.20;;;2.47;;
13720;SDS011;6932;51.438;5.470;2022-07-29T04:47:51;3.67;;;2.70;;
13720;SDS011;6932;51.438;5.470;2022-07-29T04:50:17;4.60;;;2.43;;
13720;SDS011;6932;51.438;5.470;2022-07-29T04:52:43;3.97;;;2.27;;
13720;SDS011;6932;51.438;5.470;2022-07-29T04:55:09;3.50;;;2.50;;
13720;SDS011;6932;51.438;5.470;2022-07-29T04:57:34;3.47;;;2.20;;
13720;SDS011;6932;51.438;5.470;2022-07-29T05:00:00;3.73;;;2.20;;
13720;SDS011;6932;51.438;5.470;2022-07-29T05:02:27;3.87;;;2.50;;
13720;SDS011;6932;51.438;5.470;2022-07-29T05:04:53;4.20;;;2.50;;
13720;SDS011;6932;51.438;5.470;2022-07-29T05:07:18;3.87;;;2.60;;
13720;SDS011;6932;51.438;5.470;2022-07-29T05:09:44;3.70;;;2.40;;
13720;SDS011;6932;51.438;5.470;2022-07-29T05:12:10;5.30;;;2.70;;
13720;SDS011;6932;51.438;5.470;2022-07-29T05:14:36;5.23;;;2.70;;
13720;SDS011;6932;51.438;5.470;2022-07-29T05:17:02;5.23;;;2.60;;
13720;SDS011;6932;51.438;5.470;2022-07-29T05:19:28;3.70;;;2.50;;
13720;SDS011;6932;51.438;5.470;2022-07-29T05:21:54;3.43;;;2.30;;
13720;SDS011;6932;51.438;5.470;2022-07-29T05:24:19;3.43;;;2.37;;
13720;SDS011;6932;51.438;5.470;2022-07-29T05:26:45;5.93;;;2.43;;
13720;SDS011;6932;51.438;5.470;2022-07-29T05:29:11;4.13;;;2.60;;
13720;SDS011;6932;51.438;5.470;2022-07-29T05:31:36;3.03;;;2.30;;
13720;SDS011;6932;51.438;5.470;2022-07-29T05:34:02;5.73;;;2.70;;
13720;SDS011;6932;51.438;5.470;2022-07-29T05:36:28;4.50;;;2.50;;
13720;SDS011;6932;51.438;5.470;2022-07-29T05:38:54;3.53;;;2.20;;
13720;SDS011;6932;51.438;5.470;2022-07-29T05:41:19;9.57;;;3.10;;
13720;SDS011;6932;51.438;5.470;2022-07-29T05:43:46;4.57;;;2.60;;
13720;SDS011;6932;51.438;5.470;2022-07-29T05:46:11;6.47;;;2.73;;
13720;SDS011;6932;51.438;5.470;2022-07-29T05:48:38;4.37;;;2.70;;
13720;SDS011;6932;51.438;5.470;2022-07-29T05:51:04;4.57;;;2.47;;
13720;SDS011;6932;51.438;5.470;2022-07-29T05:53:30;5.07;;;2.90;;
13720;SDS011;6932;51.438;5.470;2022-07-29T05:55:56;5.03;;;2.50;;
13720;SDS011;6932;51.438;5.470;2022-07-29T05:58:22;5.40;;;2.60;;
13720;SDS011;6932;51.438;5.470;2022-07-29T06:00:48;4.70;;;2.90;;
13720;SDS011;6932;51.438;5.470;2022-07-29T06:03:14;4.17;;;2.80;;
13720;SDS011;6932;51.438;5.470;2022-07-29T06:05:40;4.73;;;2.90;;
13720;SDS011;6932;51.438;5.470;2022-07-29T06:08:06;4.63;;;2.83;;
13720;SDS011;6932;51.438;5.470;2022-07-29T06:10:32;6.13;;;2.90;;
13720;SDS011;6932;51.438;5.470;2022-07-29T06:13:00;6.37;;;3.10;;
13720;SDS011;6932;51.438;5.470;2022-07-29T06:15:26;5.23;;;3.00;;
13720;SDS011;6932;51.438;5.470;2022-07-29T06:17:52;4.67;;;3.20;;
13720;SDS011;6932;51.438;5.470;2022-07-29T06:20:17;6.47;;;3.40;;
13720;SDS011;6932;51.438;5.470;2022-07-29T06:22:44;5.13;;;3.30;;
13720;SDS011;6932;51.438;5.470;2022-07-29T06:25:09;4.57;;;2.93;;
13720;SDS011;6932;51.438;5.470;2022-07-29T06:27:36;3.90;;;2.90;;
13720;SDS011;6932;51.438;5.470;2022-07-29T06:30:02;4.40;;;3.20;;
13720;SDS011;6932;51.438;5.470;2022-07-29T06:32:31;4.47;;;3.00;;
13720;SDS011;6932;51.438;5.470;2022-07-29T06:34:58;5.53;;;3.03;;
13720;SDS011;6932;51.438;5.470;2022-07-29T06:37:24;5.93;;;3.23;;
13720;SDS011;6932;51.438;5.470;2022-07-29T06:39:49;4.50;;;2.90;;
13720;SDS011;6932;51.438;5.470;2022-07-29T06:42:35;4.23;;;3.10;;
13720;SDS011;6932;51.438;5.470;2022-07-29T06:45:01;4.83;;;3.13;;
13720;SDS011;6932;51.438;5.470;2022-07-29T06:47:27;5.37;;;2.80;;
13720;SDS011;6932;51.438;5.470;2022-07-29T06:49:52;5.70;;;3.50;;
13720;SDS011;6932;51.438;5.470;2022-07-29T06:52:18;5.80;;;3.20;;
13720;SDS011;6932;51.438;5.470;2022-07-29T06:54:44;6.53;;;3.37;;
13720;SDS011;6932;51.438;5.470;2022-07-29T06:57:13;5.63;;;3.13;;
13720;SDS011;6932;51.438;5.470;2022-07-29T06:59:39;6.83;;;3.40;;
13720;SDS011;6932;51.438;5.470;2022-07-29T07:02:05;4.10;;;3.03;;
13720;SDS011;6932;51.438;5.470;2022-07-29T07:04:30;6.43;;;3.00;;
13720;SDS011;6932;51.438;5.470;2022-07-29T07:06:57;4.77;;;3.00;;
13720;SDS011;6932;51.438;5.470;2022-07-29T07:09:24;4.90;;;2.80;;
13720;SDS011;6932;51.438;5.470;2022-07-29T07:11:49;5.77;;;3.10;;
13720;SDS011;6932;51.438;5.470;2022-07-29T07:14:15;5.57;;;3.23;;
13720;SDS011;6932;51.438;5.470;2022-07-29T07:16:41;5.47;;;3.20;;
13720;SDS011;6932;51.438;5.470;2022-07-29T07:19:06;4.40;;;3.27;;
13720;SDS011;6932;51.438;5.470;2022-07-29T07:21:32;6.80;;;3.20;;
13720;SDS011;6932;51.438;5.470;2022-07-29T07:23:59;6.17;;;3.40;;
13720;SDS011;6932;51.438;5.470;2022-07-29T07:26:25;4.83;;;3.30;;
13720;SDS011;6932;51.438;5.470;2022-07-29T07:28:51;6.37;;;3.63;;
13720;SDS011;6932;51.438;5.470;2022-07-29T07:31:18;6.47;;;3.57;;
13720;SDS011;6932;51.438;5.470;2022-07-29T07:33:43;5.30;;;3.10;;
13720;SDS011;6932;51.438;5.470;2022-07-29T07:36:09;7.30;;;3.70;;
13720;SDS011;6932;51.438;5.470;2022-07-29T07:38:35;6.13;;;3.60;;
13720;SDS011;6932;51.438;5.470;2022-07-29T07:41:00;6.00;;;3.60;;
13720;SDS011;6932;51.438;5.470;2022-07-29T07:43:27;7.10;;;3.70;;
13720;SDS011;6932;51.438;5.470;2022-07-29T07:45:52;6.57;;;4.10;;
13720;SDS011;6932;51.438;5.470;2022-07-29T07:48:18;5.07;;;3.87;;
13720;SDS011;6932;51.438;5.470;2022-07-29T07:50:44;5.67;;;3.60;;
13720;SDS011;6932;51.438;5.470;2022-07-29T07:53:09;7.33;;;3.63;;
13720;SDS011;6932;51.438;5.470;2022-07-29T07:55:42;7.77;;;3.73;;
13720;SDS011;6932;51.438;5.470;2022-07-29T07:58:08;5.47;;;3.90;;
13720;SDS011;6932;51.438;5.470;2022-07-29T08:00:34;5.53;;;3.93;;
13720;SDS011;6932;51.438;5.470;2022-07-29T08:03:01;7.83;;;3.40;;
13720;SDS011;6932;51.438;5.470;2022-07-29T08:05:27;4.63;;;3.20;;
13720;SDS011;6932;51.438;5.470;2022-07-29T08:07:53;4.80;;;3.30;;
13720;SDS011;6932;51.438;5.470;2022-07-29T08:10:19;6.00;;;3.20;;
13720;SDS011;6932;51.438;5.470;2022-07-29T08:13:04;3.83;;;2.90;;
13720;SDS011;6932;51.438;5.470;2022-07-29T08:15:32;4.00;;;2.90;;
13720;SDS011;6932;51.438;5.470;2022-07-29T08:17:59;5.90;;;2.93;;
13720;SDS011;6932;51.438;5.470;2022-07-29T08:20:25;5.37;;;3.00;;
13720;SDS011;6932;51.438;5.470;2022-07-29T08:22:51;5.00;;;3.03;;
13720;SDS011;6932;51.438;5.470;2022-07-29T08:25:18;4.03;;;2.70;;
13720;SDS011;6932;51.438;5.470;2022-07-29T08:27:46;4.03;;;2.70;;
13720;SDS011;6932;51.438;5.470;2022-07-29T08:30:12;4.47;;;2.73;;
13720;SDS011;6932;51.438;5.470;2022-07-29T08:32:38;4.67;;;3.00;;
13720;SDS011;6932;51.438;5.470;2022-07-29T08:35:04;6.73;;;2.70;;
13720;SDS011;6932;51.438;5.470;2022-07-29T08:37:30;4.17;;;2.77;;
13720;SDS011;6932;51.438;5.470;2022-07-29T08:39:56;4.70;;;2.80;;
13720;SDS011;6932;51.438;5.470;2022-07-29T08:42:21;4.07;;;2.60;;
13720;SDS011;6932;51.438;5.470;2022-07-29T08:44:48;4.27;;;2.80;;
13720;SDS011;6932;51.438;5.470;2022-07-29T08:47:15;5.20;;;2.90;;
13720;SDS011;6932;51.438;5.470;2022-07-29T08:49:41;4.57;;;2.73;;
13720;SDS011;6932;51.438;5.470;2022-07-29T08:52:10;4.93;;;2.70;;
13720;SDS011;6932;51.438;5.470;2022-07-29T08:54:37;3.77;;;2.70;;
13720;SDS011;6932;51.438;5.470;2022-07-29T08:57:09;9.25;;;2.90;;
13720;SDS011;6932;51.438;5.470;2022-07-29T08:59:39;4.35;;;2.60;;
13720;SDS011;6932;51.438;5.470;2022-07-29T09:02:10;6.40;;;3.00;;
13720;SDS011;6932;51.438;5.470;2022-07-29T09:04:46;4.05;;;2.70;;
13720;SDS011;6932;51.438;5.470;2022-07-29T09:07:16;5.15;;;3.08;;
13720;SDS011;6932;51.438;5.470;2022-07-29T09:09:43;6.22;;;2.92;;
13720;SDS011;6932;51.438;5.470;2022-07-29T09:12:10;7.03;;;3.00;;
13720;SDS011;6932;51.438;5.470;2022-07-29T09:14:39;5.30;;;3.10;;
13720;SDS011;6932;51.438;5.470;2022-07-29T09:17:06;4.75;;;3.28;;
13720;SDS011;6932;51.438;5.470;2022-07-29T09:19:33;5.43;;;3.28;;
13720;SDS011;6932;51.438;5.470;2022-07-29T09:22:05;5.30;;;3.28;;
13720;SDS011;6932;51.438;5.470;2022-07-29T09:29:46;6.88;;;2.92;;
13720;SDS011;6932;51.438;5.470;2022-07-29T09:32:20;5.25;;;2.90;;
13720;SDS011;6932;51.438;5.470;2022-07-29T09:34:46;6.05;;;3.10;;
13720;SDS011;6932;51.438;5.470;2022-07-29T09:37:12;4.78;;;2.95;;
13720;SDS011;6932;51.438;5.470;2022-07-29T09:39:53;6.53;;;3.00;;
13720;SDS011;6932;51.438;5.470;2022-07-29T09:42:29;3.55;;;2.50;;
13720;SDS011;6932;51.438;5.470;2022-07-29T09:44:57;4.38;;;2.67;;
13720;SDS011;6932;51.438;5.470;2022-07-29T09:47:23;5.40;;;3.00;;
13720;SDS011;6932;51.438;5.470;2022-07-29T09:50:14;4.65;;;2.60;;
13720;SDS011;6932;51.438;5.470;2022-07-29T09:52:45;6.13;;;2.90;;
13720;SDS011;6932;51.438;5.470;2022-07-29T09:55:18;4.25;;;2.55;;
13720;SDS011;6932;51.438;5.470;2022-07-29T09:57:45;6.63;;;3.00;;
13720;SDS011;6932;51.438;5.470;2022-07-29T10:02:44;4.50;;;2.90;;
13720;SDS011;6932;51.438;5.470;2022-07-29T10:05:22;5.47;;;2.90;;
13720;SDS011;6932;51.438;5.470;2022-07-29T10:07:51;5.28;;;2.85;;
13720;SDS011;6932;51.438;5.470;2022-07-29T10:10:29;5.68;;;3.50;;
13720;SDS011;6932;51.438;5.470;2022-07-29T10:13:03;4.28;;;2.92;;
13720;SDS011;6932;51.438;5.470;2022-07-29T10:15:43;3.85;;;2.70;;
13720;SDS011;6932;51.438;5.470;2022-07-29T10:18:11;3.90;;;2.78;;
13720;SDS011;6932;51.438;5.470;2022-07-29T10:20:39;6.88;;;2.70;;
13720;SDS011;6932;51.438;5.470;2022-07-29T10:23:05;5.55;;;2.92;;
13720;SDS011;6932;51.438;5.470;2022-07-29T10:25:31;4.00;;;2.50;;
13720;SDS011;6932;51.438;5.470;2022-07-29T10:27:57;4.53;;;2.60;;
13720;SDS011;6932;51.438;5.470;2022-07-29T10:30:23;4.75;;;2.97;;
13720;SDS011;6932;51.438;5.470;2022-07-29T10:41:33;4.93;;;2.78;;
13720;SDS011;6932;51.438;5.470;2022-07-29T10:44:21;5.47;;;2.70;;
13720;SDS011;6932;51.438;5.470;2022-07-29T10:46:50;6.88;;;3.10;;
13720;SDS011;6932;51.438;5.470;2022-07-29T10:49:19;3.55;;;2.45;;
13720;SDS011;6932;51.438;5.470;2022-07-29T10:54:15;3.78;;;2.53;;
13720;SDS011;6932;51.438;5.470;2022-07-29T10:56:43;6.40;;;2.60;;
13720;SDS011;6932;51.438;5.470;2022-07-29T11:01:46;4.55;;;2.90;;
13720;SDS011;6932;51.438;5.470;2022-07-29T11:04:14;8.02;;;3.00;;
13720;SDS011;6932;51.438;5.470;2022-07-29T11:09:33;5.32;;;2.88;;
13720;SDS011;6932;51.438;5.470;2022-07-29T11:11:59;3.85;;;2.40;;
13720;SDS011;6932;51.438;5.470;2022-07-29T11:17:27;3.35;;;2.53;;
13720;SDS011;6932;51.438;5.470;2022-07-29T11:39:37;5.95;;;2.30;;
13720;SDS011;6932;51.438;5.470;2022-07-29T11:47:49;5.53;;;2.35;;
13720;SDS011;6932;51.438;5.470;2022-07-29T11:50:27;4.88;;;2.70;;
13720;SDS011;6932;51.438;5.470;2022-07-29T11:52:57;4.22;;;3.10;;
13720;SDS011;6932;51.438;5.470;2022-07-29T11:55:24;3.17;;;2.35;;
13720;SDS011;6932;51.438;5.470;2022-07-29T11:57:52;4.13;;;2.38;;
13720;SDS011;6932;51.438;5.470;2022-07-29T12:00:31;3.97;;;2.60;;
13720;SDS011;6932;51.438;5.470;2022-07-29T12:03:00;3.30;;;2.35;;
13720;SDS011;6932;51.438;5.470;2022-07-29T12:05:30;4.90;;;2.60;;
13720;SDS011;6932;51.438;5.470;2022-07-29T12:08:05;5.35;;;2.63;;
13720;SDS011;6932;51.438;5.470;2022-07-29T12:10:35;5.97;;;2.47;;
13720;SDS011;6932;51.438;5.470;2022-07-29T12:13:01;6.03;;;2.72;;
13720;SDS011;6932;51.438;5.470;2022-07-29T12:15:28;2.88;;;1.90;;
13720;SDS011;6932;51.438;5.470;2022-07-29T12:17:54;2.95;;;1.75;;
13720;SDS011;6932;51.438;5.470;2022-07-29T12:20:24;3.30;;;1.75;;
13720;SDS011;6932;51.438;5.470;2022-07-29T12:22:53;4.65;;;2.17;;
13720;SDS011;6932;51.438;5.470;2022-07-29T12:25:21;4.18;;;2.20;;
13720;SDS011;6932;51.438;5.470;2022-07-29T12:27:58;3.42;;;1.70;;
13720;SDS011;6932;51.438;5.470;2022-07-29T12:30:36;3.53;;;1.70;;
13720;SDS011;6932;51.438;5.470;2022-07-29T12:33:27;1.92;;;1.60;;
13720;SDS011;6932;51.438;5.470;2022-07-29T12:35:56;3.58;;;1.67;;
13720;SDS011;6932;51.438;5.470;2022-07-29T12:38:25;3.08;;;1.67;;
13720;SDS011;6932;51.438;5.470;2022-07-29T12:40:51;3.20;;;1.55;;
13720;SDS011;6932;51.438;5.470;2022-07-29T12:43:20;3.10;;;1.70;;
13720;SDS011;6932;51.438;5.470;2022-07-29T12:45:51;3.38;;;1.73;;
13720;SDS011;6932;51.438;5.470;2022-07-29T12:48:32;2.72;;;1.67;;
13720;SDS011;6932;51.438;5.470;2022-07-29T12:51:03;3.28;;;1.70;;
13720;SDS011;6932;51.438;5.470;2022-07-29T12:53:32;3.28;;;1.83;;
13720;SDS011;6932;51.438;5.470;2022-07-29T12:55:58;3.17;;;1.80;;
13720;SDS011;6932;51.438;5.470;2022-07-29T13:01:04;2.58;;;1.60;;
13720;SDS011;6932;51.438;5.470;2022-07-29T13:06:26;4.13;;;1.90;;
13720;SDS011;6932;51.438;5.470;2022-07-29T13:09:35;4.72;;;1.83;;
13720;SDS011;6932;51.438;5.470;2022-07-29T13:11:51;3.25;;;1.83;;
13720;SDS011;6932;51.438;5.470;2022-07-29T13:16:59;2.83;;;1.63;;
13720;SDS011;6932;51.438;5.470;2022-07-29T13:19:52;4.38;;;1.90;;
13720;SDS011;6932;51.438;5.470;2022-07-29T13:22:30;2.22;;;1.73;;
13720;SDS011;6932;51.438;5.470;2022-07-29T13:24:58;2.60;;;1.77;;
13720;SDS011;6932;51.438;5.470;2022-07-29T13:27:29;3.33;;;1.67;;
13720;SDS011;6932;51.438;5.470;2022-07-29T13:29:57;2.80;;;1.63;;
13720;SDS011;6932;51.438;5.470;2022-07-29T13:32:26;3.25;;;1.90;;
13720;SDS011;6932;51.438;5.470;2022-07-29T13:34:55;2.45;;;1.60;;
13720;SDS011;6932;51.438;5.470;2022-07-29T13:37:22;5.03;;;2.03;;
13720;SDS011;6932;51.438;5.470;2022-07-29T13:39:48;4.38;;;2.05;;
13720;SDS011;6932;51.438;5.470;2022-07-29T13:42:14;3.63;;;1.83;;
13720;SDS011;6932;51.438;5.470;2022-07-29T13:44:40;3.60;;;1.90;;
13720;SDS011;6932;51.438;5.470;2022-07-29T13:47:06;5.03;;;1.70;;
13720;SDS011;6932;51.438;5.470;2022-07-29T13:49:33;3.88;;;1.95;;
13720;SDS011;6932;51.438;5.470;2022-07-29T13:51:59;4.43;;;1.88;;
13720;SDS011;6932;51.438;5.470;2022-07-29T13:54:26;3.13;;;1.85;;
13720;SDS011;6932;51.438;5.470;2022-07-29T13:56:52;4.45;;;1.85;;
13720;SDS011;6932;51.438;5.470;2022-07-29T13:59:17;4.03;;;1.75;;
13720;SDS011;6932;51.438;5.470;2022-07-29T14:01:43;2.60;;;1.77;;
13720;SDS011;6932;51.438;5.470;2022-07-29T14:04:10;2.53;;;1.73;;
13720;SDS011;6932;51.438;5.470;2022-07-29T14:06:36;4.45;;;1.75;;
13720;SDS011;6932;51.438;5.470;2022-07-29T14:09:03;2.45;;;1.83;;
13720;SDS011;6932;51.438;5.470;2022-07-29T14:11:38;3.78;;;1.88;;
13720;SDS011;6932;51.438;5.470;2022-07-29T14:14:04;3.83;;;2.30;;
13720;SDS011;6932;51.438;5.470;2022-07-29T14:16:30;3.40;;;1.88;;
13720;SDS011;6932;51.438;5.470;2022-07-29T14:18:56;3.38;;;2.05;;
13720;SDS011;6932;51.438;5.470;2022-07-29T14:21:21;4.40;;;1.92;;
13720;SDS011;6932;51.438;5.470;2022-07-29T14:23:48;3.78;;;1.85;;
13720;SDS011;6932;51.438;5.470;2022-07-29T14:26:13;2.92;;;1.88;;
13720;SDS011;6932;51.438;5.470;2022-07-29T14:28:39;3.50;;;1.90;;
13720;SDS011;6932;51.438;5.470;2022-07-29T14:31:05;4.13;;;1.90;;
13720;SDS011;6932;51.438;5.470;2022-07-29T14:33:31;3.95;;;1.90;;
13720;SDS011;6932;51.438;5.470;2022-07-29T14:35:56;4.82;;;2.03;;
13720;SDS011;6932;51.438;5.470;2022-07-29T14:38:22;5.70;;;2.03;;
13720;SDS011;6932;51.438;5.470;2022-07-29T14:40:48;3.78;;;2.17;;
13720;SDS011;6932;51.438;5.470;2022-07-29T14:43:14;4.28;;;2.15;;
13720;SDS011;6932;51.438;5.470;2022-07-29T14:45:40;3.75;;;1.80;;
13720;SDS011;6932;51.438;5.470;2022-07-29T14:48:06;4.65;;;1.92;;
13720;SDS011;6932;51.438;5.470;2022-07-29T14:50:32;3.70;;;1.85;;
13720;SDS011;6932;51.438;5.470;2022-07-29T14:53:00;3.58;;;1.80;;
13720;SDS011;6932;51.438;5.470;2022-07-29T14:55:26;6.00;;;1.67;;
13720;SDS011;6932;51.438;5.470;2022-07-29T14:57:52;4.18;;;1.52;;
13720;SDS011;6932;51.438;5.470;2022-07-29T15:00:18;7.35;;;2.05;;
13720;SDS011;6932;51.438;5.470;2022-07-29T15:02:45;3.75;;;1.52;;
13720;SDS011;6932;51.438;5.470;2022-07-29T15:05:12;2.75;;;1.70;;
13720;SDS011;6932;51.438;5.470;2022-07-29T15:07:38;3.90;;;1.60;;
13720;SDS011;6932;51.438;5.470;2022-07-29T15:10:04;6.40;;;1.85;;
13720;SDS011;6932;51.438;5.470;2022-07-29T15:12:30;2.35;;;1.70;;
13720;SDS011;6932;51.438;5.470;2022-07-29T15:14:57;2.25;;;1.63;;
13720;SDS011;6932;51.438;5.470;2022-07-29T15:17:23;2.30;;;1.60;;
13720;SDS011;6932;51.438;5.470;2022-07-29T15:19:48;5.63;;;1.90;;
13720;SDS011;6932;51.438;5.470;2022-07-29T15:22:14;3.17;;;1.63;;
13720;SDS011;6932;51.438;5.470;2022-07-29T15:24:40;4.80;;;1.70;;
13720;SDS011;6932;51.438;5.470;2022-07-29T15:27:06;3.25;;;1.73;;
13720;SDS011;6932;51.438;5.470;2022-07-29T15:29:38;2.80;;;1.75;;
13720;SDS011;6932;51.438;5.470;2022-07-29T15:32:06;4.50;;;1.70;;
13720;SDS011;6932;51.438;5.470;2022-07-29T15:34:32;3.83;;;1.50;;
13720;SDS011;6932;51.438;5.470;2022-07-29T15:36:59;2.78;;;1.80;;
13720;SDS011;6932;51.438;5.470;2022-07-29T15:39:25;3.25;;;1.70;;
13720;SDS011;6932;51.438;5.470;2022-07-29T15:41:51;5.35;;;1.92;;
13720;SDS011;6932;51.438;5.470;2022-07-29T15:44:17;4.20;;;2.03;;
13720;SDS011;6932;51.438;5.470;2022-07-29T15:46:43;5.03;;;2.00;;
13720;SDS011;6932;51.438;5.470;2022-07-29T15:49:27;4.22;;;1.65;;
13720;SDS011;6932;51.438;5.470;2022-07-29T15:51:59;3.20;;;1.90;;
13720;SDS011;6932;51.438;5.470;2022-07-29T15:54:28;2.75;;;1.67;;
13720;SDS011;6932;51.438;5.470;2022-07-29T15:56:55;3.83;;;2.13;;
13720;SDS011;6932;51.438;5.470;2022-07-29T15:59:21;2.72;;;1.90;;
13720;SDS011;6932;51.438;5.470;2022-07-29T16:01:47;2.40;;;1.73;;
13720;SDS011;6932;51.438;5.470;2022-07-29T16:04:13;2.50;;;1.90;;
13720;SDS011;6932;51.438;5.470;2022-07-29T16:06:40;4.63;;;1.83;;
13720;SDS011;6932;51.438;5.470;2022-07-29T16:09:06;3.15;;;1.70;;
13720;SDS011;6932;51.438;5.470;2022-07-29T16:11:32;4.20;;;2.03;;
13720;SDS011;6932;51.438;5.470;2022-07-29T16:13:58;3.38;;;1.60;;